Time;durP1;ratioP1;P1;durP2;ratioP2;P2;SDS_P1;SDS_P2;PMS_P1;PMS_P2;Temp;Humidity;BMP_temperature;BMP_pressure;BME280_temperature;BME280_humidity;BME280_pressure;Samples;Min_cycle;Max_cycle;Signal;HPM_P1;HPM_P2
2022/09/23 00:01:31;;;;;;;0.60;0.60;;;9.70;99.90;;;;;;4999981;28;20434;-78
2022/09/23 00:03:58;;;;;;;0.50;0.50;;;9.70;99.90;;;;;;5006294;28;20051;-78
2022/09/23 00:06:28;;;;;;;0.50;0.50;;;9.70;99.90;;;;;;5008146;27;20857;-78
2022/09/23 00:08:54;;;;;;;0.50;0.50;;;9.60;99.90;;;;;;5016058;27;20953;-78
2022/09/23 00:11:22;;;;;;;0.50;0.50;;;9.70;99.90;;;;;;5005952;27;20052;-78
2022/09/23 00:13:52;;;;;;;0.60;0.60;;;9.70;99.90;;;;;;4999010;27;20044;-78
2022/09/23 00:16:22;;;;;;;0.50;0.50;;;9.70;99.90;;;;;;5005332;27;20043;-78
2022/09/23 00:18:49;;;;;;;0.50;0.50;;;9.70;99.90;;;;;;5024723;27;20138;-78
2022/09/23 00:21:16;;;;;;;0.50;0.50;;;9.70;99.90;;;;;;5025507;27;20448;-78
2022/09/23 00:23:43;;;;;;;0.50;0.50;;;9.70;99.90;;;;;;5033722;27;20062;-78
2022/09/23 00:26:12;;;;;;;0.50;0.50;;;9.60;99.90;;;;;;5007332;27;20039;-79
2022/09/23 00:28:39;;;;;;;0.50;0.50;;;9.60;99.90;;;;;;5025818;27;20430;-78
2022/09/23 00:31:07;;;;;;;0.50;0.50;;;9.50;99.90;;;;;;5004755;27;20158;-79
2022/09/23 00:33:33;;;;;;;0.50;0.50;;;9.50;99.90;;;;;;5003318;27;20623;-79
2022/09/23 00:36:00;;;;;;;0.50;0.50;;;9.40;99.90;;;;;;5006155;27;20549;-79
2022/09/23 00:38:27;;;;;;;0.50;0.50;;;9.50;99.90;;;;;;5003916;27;20089;-79
2022/09/23 00:40:53;;;;;;;0.50;0.50;;;9.50;99.90;;;;;;4985191;27;20044;-78
2022/09/23 00:43:19;;;;;;;0.50;0.50;;;9.50;99.90;;;;;;5020553;27;20492;-79
2022/09/23 00:45:48;;;;;;;0.50;0.50;;;9.50;99.90;;;;;;5007935;27;20107;-78
2022/09/23 00:48:18;;;;;;;0.50;0.50;;;9.40;99.90;;;;;;5005332;27;20246;-78
2022/09/23 00:50:49;;;;;;;0.50;0.50;;;9.30;99.90;;;;;;5005087;27;20630;-78
2022/09/23 00:53:20;;;;;;;0.50;0.50;;;9.40;99.90;;;;;;5027615;27;20040;-78
2022/09/23 00:56:01;;;;;;;0.50;0.50;;;9.50;99.90;;;;;;5029805;27;20075;-78
2022/09/23 00:58:31;;;;;;;0.60;0.60;;;9.50;99.90;;;;;;5014596;27;20493;-78
2022/09/23 01:01:01;;;;;;;0.50;0.50;;;9.30;99.90;;;;;;5023529;27;20140;-78
2022/09/23 01:03:28;;;;;;;0.50;0.50;;;9.30;99.90;;;;;;5009814;27;20078;-78
2022/09/23 01:05:55;;;;;;;0.50;0.50;;;9.20;99.90;;;;;;5021849;27;20621;-79
2022/09/23 01:08:22;;;;;;;0.50;0.50;;;9.10;99.90;;;;;;5005997;27;21082;-78
2022/09/23 01:10:48;;;;;;;0.50;0.50;;;9.20;99.90;;;;;;5028385;27;20058;-78
2022/09/23 01:13:30;;;;;;;0.50;0.50;;;9.30;99.90;;;;;;4992920;28;20510;-78
2022/09/23 01:16:05;;;;;;;0.50;0.50;;;9.40;99.90;;;;;;5047960;27;20055;-78
2022/09/23 01:18:52;;;;;;;0.50;0.50;;;9.50;99.90;;;;;;5009212;27;20243;-78
2022/09/23 01:21:35;;;;;;;0.50;0.50;;;9.50;99.90;;;;;;5003187;27;20522;-78
2022/09/23 01:24:29;;;;;;;0.50;0.50;;;9.50;99.90;;;;;;5028406;27;20683;-78
2022/09/23 01:27:36;;;;;;;0.50;0.50;;;9.50;99.90;;;;;;5013509;27;20754;-78
2022/09/23 01:30:39;;;;;;;0.50;0.50;;;9.30;99.90;;;;;;5018784;27;20094;-78
2022/09/23 01:33:39;;;;;;;0.50;0.50;;;9.30;99.90;;;;;;5005154;27;20579;-78
2022/09/23 01:36:24;;;;;;;0.50;0.50;;;9.30;99.90;;;;;;5006495;27;20442;-78
2022/09/23 01:39:06;;;;;;;0.60;0.60;;;9.10;99.90;;;;;;5008322;27;20160;-78
2022/09/23 01:41:50;;;;;;;0.50;0.50;;;9.10;99.90;;;;;;5017285;27;20058;-78
2022/09/23 01:44:41;;;;;;;0.60;0.60;;;9.20;99.90;;;;;;5010741;28;20300;-78
2022/09/23 01:47:29;;;;;;;0.50;0.50;;;9.10;99.90;;;;;;5041053;27;20474;-78
2022/09/23 01:50:00;;;;;;;0.55;0.55;;;9.00;99.90;;;;;;5021011;27;20134;-79
2022/09/23 01:52:40;;;;;;;0.50;0.50;;;9.00;99.90;;;;;;5016813;27;20084;-79
2022/09/23 01:55:09;;;;;;;0.60;0.60;;;8.90;99.90;;;;;;5019494;27;20097;-78
2022/09/23 01:57:42;;;;;;;0.57;0.57;;;9.00;99.90;;;;;;5005876;27;20139;-78
2022/09/23 02:00:15;;;;;;;0.50;0.50;;;9.00;99.90;;;;;;5003616;27;20066;-78
2022/09/23 02:02:53;;;;;;;0.50;0.50;;;9.10;99.90;;;;;;5025783;27;20452;-78
2022/09/23 02:05:40;;;;;;;0.50;0.50;;;9.10;99.90;;;;;;5004724;27;20766;-78
2022/09/23 02:08:18;;;;;;;0.60;0.60;;;9.00;99.90;;;;;;5004309;28;20051;-78
2022/09/23 02:10:59;;;;;;;0.50;0.50;;;9.00;99.90;;;;;;5017158;27;20061;-78
2022/09/23 02:13:45;;;;;;;0.50;0.50;;;9.10;99.90;;;;;;5013685;28;20051;-78
2022/09/23 02:16:40;;;;;;;0.50;0.50;;;9.10;99.90;;;;;;5005979;27;20050;-78
2022/09/23 02:19:12;;;;;;;0.60;0.60;;;9.00;99.90;;;;;;4992754;27;20051;-78
2022/09/23 02:21:41;;;;;;;0.50;0.50;;;9.00;99.90;;;;;;5022882;27;20893;-79
2022/09/23 02:24:18;;;;;;;0.50;0.50;;;8.90;99.90;;;;;;5011910;27;20923;-78
2022/09/23 02:26:54;;;;;;;0.50;0.50;;;8.90;99.90;;;;;;5021032;27;20054;-79
2022/09/23 02:29:27;;;;;;;0.50;0.50;;;8.90;99.90;;;;;;5009698;27;20187;-78
2022/09/23 02:31:58;;;;;;;0.60;0.60;;;8.80;99.90;;;;;;5003675;27;20978;-79
2022/09/23 02:34:52;;;;;;;0.50;0.50;;;8.80;99.90;;;;;;5028764;27;20046;-79
2022/09/23 02:37:42;;;;;;;0.50;0.50;;;8.80;99.90;;;;;;5025038;27;20051;-79
2022/09/23 02:40:14;;;;;;;0.50;0.50;;;8.70;99.90;;;;;;5020978;27;20051;-79
2022/09/23 02:43:11;;;;;;;0.55;0.55;;;8.80;99.90;;;;;;5016132;27;20366;-79
2022/09/23 02:45:37;;;;;;;0.50;0.50;;;8.80;99.90;;;;;;5016639;27;20055;-78
2022/09/23 02:48:15;;;;;;;0.60;0.60;;;8.70;99.90;;;;;;5040604;27;20123;-79
2022/09/23 02:50:41;;;;;;;0.50;0.50;;;8.60;99.90;;;;;;5005823;28;20578;-79
2022/09/23 02:53:07;;;;;;;0.50;0.50;;;8.60;99.90;;;;;;5003192;27;20988;-79
2022/09/23 02:55:33;;;;;;;0.50;0.50;;;8.60;99.90;;;;;;5004645;27;20066;-79
2022/09/23 02:58:00;;;;;;;0.50;0.50;;;8.60;99.90;;;;;;5029062;27;20043;-79
2022/09/23 03:01:09;;;;;;;0.50;0.50;;;8.60;99.90;;;;;;5002684;27;20951;-79
2022/09/23 03:03:48;;;;;;;0.50;0.50;;;8.50;99.90;;;;;;4994659;28;20667;-79
2022/09/23 03:06:52;;;;;;;0.50;0.50;;;8.50;99.90;;;;;;5005723;28;20086;-79
2022/09/23 03:09:51;;;;;;;0.60;0.60;;;8.40;99.90;;;;;;5016211;28;20051;-79
2022/09/23 03:12:39;;;;;;;0.60;0.60;;;8.30;99.90;;;;;;5016148;27;20077;-79
2022/09/23 03:15:54;;;;;;;0.60;0.60;;;8.30;99.90;;;;;;5003748;28;20051;-78
2022/09/23 03:18:30;;;;;;;;;;;8.30;99.90;;;;;;5016993;27;20527;-79
2022/09/23 03:21:24;;;;;;;0.60;0.60;;;8.40;99.90;;;;;;5013033;27;19938;-79
2022/09/23 03:23:51;;;;;;;0.50;0.50;;;8.30;99.90;;;;;;5004541;28;20049;-79
2022/09/23 03:26:26;;;;;;;0.50;0.50;;;8.40;99.90;;;;;;5007065;28;20556;-78
2022/09/23 03:28:53;;;;;;;0.50;0.50;;;8.40;99.90;;;;;;5011371;28;20991;-79
2022/09/23 03:31:19;;;;;;;0.50;0.50;;;8.40;99.90;;;;;;5007098;28;20051;-79
2022/09/23 03:33:49;;;;;;;0.50;0.50;;;8.30;99.90;;;;;;5004450;28;20127;-79
2022/09/23 03:39:17;;;;;;;0.50;0.50;;;8.20;99.90;;;;;;5023754;28;20175;-79
2022/09/23 03:41:51;;;;;;;0.50;0.50;;;8.20;99.90;;;;;;5012919;27;20116;-79
2022/09/23 03:44:19;;;;;;;0.50;0.50;;;8.20;99.90;;;;;;5008602;28;20456;-78
2022/09/23 03:46:48;;;;;;;0.50;0.50;;;8.10;99.90;;;;;;5003089;28;20306;-78
2022/09/23 03:49:27;;;;;;;0.50;0.50;;;8.20;99.90;;;;;;5009130;28;20044;-79
2022/09/23 03:51:54;;;;;;;0.50;0.50;;;8.10;99.90;;;;;;5014929;28;20221;-79
2022/09/23 03:54:20;;;;;;;0.50;0.50;;;8.10;99.90;;;;;;4991078;28;20047;-78
2022/09/23 03:56:46;;;;;;;0.57;0.57;;;8.00;99.90;;;;;;5001780;28;20055;-79
2022/09/23 03:59:16;;;;;;;0.60;0.60;;;8.00;99.90;;;;;;5005423;28;20154;-79
2022/09/23 04:01:42;;;;;;;0.50;0.50;;;8.00;99.90;;;;;;5002272;28;20054;-79
2022/09/23 04:04:09;;;;;;;0.50;0.50;;;8.00;99.90;;;;;;5002972;28;20048;-78
2022/09/23 04:06:35;;;;;;;0.50;0.50;;;8.00;99.90;;;;;;4995855;28;20904;-78
2022/09/23 04:09:01;;;;;;;0.55;0.55;;;8.00;99.90;;;;;;5005015;28;20094;-79
2022/09/23 04:11:27;;;;;;;0.50;0.50;;;8.00;99.90;;;;;;5013396;28;20430;-79
2022/09/23 04:13:55;;;;;;;0.50;0.50;;;8.00;99.90;;;;;;5006457;28;20058;-78
2022/09/23 04:16:21;;;;;;;0.60;0.60;;;8.00;99.90;;;;;;4994585;28;20048;-79
2022/09/23 04:18:48;;;;;;;0.50;0.50;;;7.90;99.90;;;;;;5007984;28;20238;-78
2022/09/23 04:21:14;;;;;;;0.50;0.50;;;7.90;99.90;;;;;;5006271;28;20048;-79
2022/09/23 04:23:40;;;;;;;0.60;0.60;;;8.00;99.90;;;;;;4993995;28;20125;-78
2022/09/23 04:26:06;;;;;;;0.60;0.60;;;7.90;99.90;;;;;;5010318;28;20044;-78
2022/09/23 04:28:33;;;;;;;0.50;0.50;;;7.90;99.90;;;;;;5000376;28;20401;-78
2022/09/23 04:31:03;;;;;;;0.50;0.50;;;7.80;99.90;;;;;;5006483;28;20054;-78
2022/09/23 04:33:29;;;;;;;0.50;0.50;;;7.80;99.90;;;;;;5012503;28;20043;-79
2022/09/23 04:35:55;;;;;;;0.50;0.50;;;7.80;99.90;;;;;;5008160;27;20695;-78
2022/09/23 04:38:48;;;;;;;0.50;0.50;;;7.70;99.90;;;;;;5002013;28;20590;-78
2022/09/23 04:41:14;;;;;;;0.50;0.50;;;7.90;99.90;;;;;;5000507;28;20792;-78
2022/09/23 04:43:41;;;;;;;0.60;0.60;;;7.90;99.90;;;;;;5023105;27;20054;-78
2022/09/23 04:46:09;;;;;;;0.60;0.60;;;7.80;99.90;;;;;;5014255;27;20053;-78
2022/09/23 04:48:37;;;;;;;0.55;0.55;;;7.70;99.90;;;;;;4991597;27;20077;-78
2022/09/23 04:51:06;;;;;;;0.50;0.50;;;7.80;99.90;;;;;;5011967;27;20427;-78
2022/09/23 04:53:36;;;;;;;0.50;0.50;;;7.80;99.90;;;;;;5020865;27;20124;-78
2022/09/23 04:56:15;;;;;;;0.50;0.50;;;7.80;99.90;;;;;;5006523;27;20043;-78
2022/09/23 04:58:42;;;;;;;0.60;0.60;;;7.80;99.90;;;;;;5029666;27;20074;-78
2022/09/23 05:01:18;;;;;;;0.60;0.60;;;7.80;99.90;;;;;;5009555;28;20440;-79
2022/09/23 05:03:45;;;;;;;0.60;0.60;;;7.80;99.90;;;;;;5013393;27;20059;-79
2022/09/23 05:06:13;;;;;;;0.60;0.60;;;7.80;99.90;;;;;;5010975;27;20047;-79
2022/09/23 05:08:40;;;;;;;0.60;0.60;;;7.80;99.90;;;;;;5006344;28;20592;-81
2022/09/23 05:11:07;;;;;;;0.60;0.60;;;7.80;99.90;;;;;;5000260;27;20051;-79
2022/09/23 05:13:34;;;;;;;0.60;0.60;;;7.90;99.90;;;;;;5033485;27;20331;-79
2022/09/23 05:16:06;;;;;;;0.50;0.50;;;7.90;99.90;;;;;;5037673;27;20196;-79
2022/09/23 05:18:34;;;;;;;0.60;0.60;;;7.90;99.90;;;;;;5040311;27;20047;-79
2022/09/23 05:21:00;;;;;;;0.60;0.60;;;7.70;99.90;;;;;;5022228;27;20491;-79
2022/09/23 05:23:27;;;;;;;0.60;0.60;;;7.80;99.90;;;;;;5015043;27;20435;-79
2022/09/23 05:25:58;;;;;;;0.50;0.50;;;7.70;99.90;;;;;;5033957;27;20043;-80
2022/09/23 05:28:27;;;;;;;0.60;0.60;;;7.70;99.90;;;;;;5027661;27;20050;-79
2022/09/23 05:30:52;;;;;;;0.50;0.50;;;7.80;99.90;;;;;;5019334;27;20389;-79
2022/09/23 05:33:18;;;;;;;0.50;0.50;;;7.90;99.90;;;;;;5028388;27;20072;-78
2022/09/23 05:35:47;;;;;;;0.60;0.60;;;7.90;99.90;;;;;;5013320;27;20059;-79
2022/09/23 05:38:16;;;;;;;0.50;0.50;;;7.80;99.90;;;;;;5036307;27;20050;-79
2022/09/23 05:40:42;;;;;;;0.50;0.50;;;7.80;99.90;;;;;;5012854;27;20823;-78
2022/09/23 05:43:08;;;;;;;0.57;0.57;;;7.80;99.90;;;;;;5035272;27;20111;-78
2022/09/23 05:45:34;;;;;;;0.60;0.60;;;7.90;99.90;;;;;;5014606;27;20172;-78
2022/09/23 05:48:01;;;;;;;0.60;0.60;;;7.90;99.90;;;;;;5020348;27;20798;-78
2022/09/23 05:50:27;;;;;;;0.60;0.60;;;8.00;99.90;;;;;;5012838;27;20047;-79
2022/09/23 05:52:53;;;;;;;0.57;0.57;;;8.00;99.90;;;;;;5025423;27;20055;-78
2022/09/23 05:55:19;;;;;;;0.50;0.50;;;8.00;99.90;;;;;;5020860;27;20074;-79
2022/09/23 05:57:45;;;;;;;0.60;0.60;;;8.10;99.90;;;;;;5024273;28;20134;-79
2022/09/23 06:00:11;;;;;;;0.60;0.60;;;8.20;99.90;;;;;;5013616;27;20043;-78
2022/09/23 06:02:37;;;;;;;0.60;0.60;;;8.20;99.90;;;;;;5003762;27;20613;-79
2022/09/23 06:05:03;;;;;;;0.60;0.60;;;8.20;99.90;;;;;;5013516;27;20411;-80
2022/09/23 06:07:31;;;;;;;0.60;0.60;;;8.30;99.90;;;;;;4986137;27;20409;-77
2022/09/23 06:09:57;;;;;;;0.60;0.60;;;8.20;99.90;;;;;;5012675;28;20048;-79
2022/09/23 06:12:23;;;;;;;0.60;0.60;;;8.30;99.90;;;;;;5005676;27;22606;-79
2022/09/23 06:14:49;;;;;;;0.60;0.60;;;8.30;99.90;;;;;;5024754;27;20050;-78
2022/09/23 06:17:15;;;;;;;0.60;0.60;;;8.40;99.90;;;;;;5026353;27;20039;-78
2022/09/23 06:19:41;;;;;;;0.60;0.60;;;8.50;99.90;;;;;;5005887;27;20047;-78
2022/09/23 06:22:07;;;;;;;0.60;0.60;;;8.70;99.90;;;;;;5016408;27;20047;-79
2022/09/23 06:24:33;;;;;;;0.60;0.60;;;8.90;99.90;;;;;;5004503;27;20642;-79
2022/09/23 06:26:59;;;;;;;0.60;0.60;;;9.10;99.90;;;;;;5009011;27;20086;-79
2022/09/23 06:29:25;;;;;;;0.50;0.50;;;9.20;99.90;;;;;;5033859;27;20043;-79
2022/09/23 06:31:51;;;;;;;0.60;0.60;;;9.30;99.90;;;;;;4993260;27;20104;-80
2022/09/23 06:34:17;;;;;;;0.60;0.60;;;9.50;99.90;;;;;;4998276;28;20423;-79
2022/09/23 06:36:43;;;;;;;0.60;0.60;;;9.60;99.90;;;;;;4990822;27;20521;-79
2022/09/23 06:39:09;;;;;;;0.50;0.50;;;9.80;99.90;;;;;;5012156;28;20692;-80
2022/09/23 06:41:35;;;;;;;0.60;0.60;;;9.90;99.90;;;;;;5016829;27;20465;-81
2022/09/23 06:44:01;;;;;;;0.60;0.60;;;10.00;99.90;;;;;;4989608;27;20130;-80
2022/09/23 06:46:27;;;;;;;0.57;0.57;;;10.10;99.90;;;;;;5004723;27;20043;-80
2022/09/23 06:48:53;;;;;;;0.50;0.50;;;10.20;99.90;;;;;;5031832;27;21099;-79
2022/09/23 06:51:19;;;;;;;0.50;0.50;;;10.20;99.90;;;;;;5022772;27;20043;-80
2022/09/23 06:53:46;;;;;;;0.50;0.50;;;10.30;99.90;;;;;;4979588;27;20050;-80
2022/09/23 06:56:14;;;;;;;0.50;0.50;;;10.30;99.90;;;;;;5010019;27;20721;-80
2022/09/23 06:58:40;;;;;;;0.50;0.50;;;10.40;99.90;;;;;;5007092;28;20085;-79
2022/09/23 07:01:08;;;;;;;0.50;0.50;;;10.40;99.90;;;;;;5004705;27;20104;-79
2022/09/23 07:03:35;;;;;;;0.50;0.50;;;10.40;99.90;;;;;;5006975;28;20044;-80
2022/09/23 07:06:02;;;;;;;0.50;0.50;;;10.40;99.90;;;;;;5008977;28;20559;-80
2022/09/23 07:08:29;;;;;;;0.50;0.50;;;10.50;99.90;;;;;;5026111;27;20740;-79
2022/09/23 07:10:57;;;;;;;0.50;0.50;;;10.60;99.90;;;;;;5010376;28;20154;-79
2022/09/23 07:13:24;;;;;;;0.52;0.52;;;10.70;99.90;;;;;;5020075;28;20047;-81
2022/09/23 07:15:57;;;;;;;0.50;0.50;;;10.70;99.90;;;;;;5000931;28;21002;-80
2022/09/23 07:18:25;;;;;;;0.50;0.50;;;10.80;99.90;;;;;;5005601;28;20561;-79
2022/09/23 07:20:52;;;;;;;0.50;0.50;;;10.90;99.90;;;;;;5009423;28;20058;-79
2022/09/23 07:23:18;;;;;;;0.50;0.50;;;10.90;99.90;;;;;;5025795;28;20154;-78
2022/09/23 07:25:50;;;;;;;0.50;0.50;;;11.00;99.90;;;;;;5003153;28;20061;-79
2022/09/23 07:28:16;;;;;;;0.50;0.50;;;11.10;99.90;;;;;;4990236;28;20563;-79
2022/09/23 07:30:43;;;;;;;0.50;0.50;;;11.10;99.90;;;;;;5007986;28;20047;-78
2022/09/23 07:33:09;;;;;;;0.50;0.50;;;11.20;99.90;;;;;;5013274;28;20058;-80
2022/09/23 07:35:38;;;;;;;0.50;0.50;;;11.30;99.90;;;;;;5009202;28;20055;-79
2022/09/23 07:38:04;;;;;;;0.50;0.50;;;11.50;99.90;;;;;;5003677;28;20641;-79
2022/09/23 07:40:30;;;;;;;0.50;0.50;;;11.60;99.90;;;;;;5006782;28;20519;-80
2022/09/23 07:42:56;;;;;;;0.50;0.50;;;11.70;99.90;;;;;;5013489;28;20860;-80
2022/09/23 07:45:22;;;;;;;0.50;0.50;;;11.80;99.90;;;;;;5010880;28;20048;-81
2022/09/23 07:47:48;;;;;;;0.50;0.50;;;11.90;99.90;;;;;;4973040;28;20112;-80
2022/09/23 07:50:15;;;;;;;0.60;0.60;;;12.00;99.90;;;;;;5004735;27;20517;-80
2022/09/23 07:52:42;;;;;;;0.50;0.50;;;12.10;99.90;;;;;;5023545;28;20580;-80
2022/09/23 07:55:07;;;;;;;0.50;0.50;;;12.20;99.90;;;;;;5005808;28;20185;-81
2022/09/23 07:57:33;;;;;;;0.50;0.50;;;12.30;99.90;;;;;;5005803;28;20043;-80
2022/09/23 08:00:00;;;;;;;0.50;0.50;;;12.50;99.90;;;;;;5026816;28;20050;-80
2022/09/23 08:02:26;;;;;;;0.50;0.50;;;12.60;99.90;;;;;;5009495;28;20113;-80
2022/09/23 08:04:53;;;;;;;0.50;0.50;;;12.70;99.90;;;;;;5004807;28;20078;-80
2022/09/23 08:07:19;;;;;;;0.47;0.47;;;12.80;99.90;;;;;;4999684;28;20407;-79
2022/09/23 08:09:45;;;;;;;0.50;0.50;;;13.00;99.90;;;;;;5006246;28;20058;-80
2022/09/23 08:12:15;;;;;;;0.50;0.50;;;13.10;99.90;;;;;;5018208;28;20655;-78
2022/09/23 08:14:41;;;;;;;0.45;0.45;;;13.10;99.90;;;;;;5002424;28;20062;-80
2022/09/23 08:17:08;;;;;;;0.40;0.40;;;13.30;99.90;;;;;;5006111;28;20223;-80
2022/09/23 08:19:34;;;;;;;0.50;0.50;;;13.40;99.90;;;;;;4990459;28;20951;-81
2022/09/23 08:22:00;;;;;;;0.50;0.50;;;13.50;99.90;;;;;;5010562;28;20054;-79
2022/09/23 08:24:26;;;;;;;0.50;0.50;;;13.60;99.90;;;;;;5006627;28;20438;-80
2022/09/23 08:26:53;;;;;;;0.40;0.40;;;13.70;99.90;;;;;;5010556;27;20046;-81
2022/09/23 08:29:23;;;;;;;0.50;0.50;;;13.90;99.90;;;;;;5022156;27;20605;-79
2022/09/23 08:31:50;;;;;;;0.50;0.50;;;14.00;99.90;;;;;;5011617;27;20147;-79
2022/09/23 08:34:18;;;;;;;0.50;0.50;;;14.10;99.90;;;;;;5017308;27;20036;-80
2022/09/23 08:36:44;;;;;;;0.50;0.50;;;14.10;99.90;;;;;;4994252;28;20432;-80
2022/09/23 08:39:15;;;;;;;0.40;0.40;;;14.20;99.90;;;;;;5025172;27;20082;-80
2022/09/23 08:42:06;;;;;;;0.50;0.50;;;14.40;99.90;;;;;;5022520;27;20059;-79
2022/09/23 08:44:47;;;;;;;0.40;0.40;;;14.60;99.90;;;;;;5000293;28;20413;-81
2022/09/23 08:47:27;;;;;;;0.50;0.50;;;14.80;99.90;;;;;;5010598;27;20560;-78
2022/09/23 08:50:10;;;;;;;0.50;0.50;;;15.00;99.90;;;;;;5000476;27;20056;-79
2022/09/23 08:53:04;;;;;;;0.50;0.50;;;15.10;99.90;;;;;;5025799;27;20043;-80
2022/09/23 08:55:36;;;;;;;0.50;0.50;;;15.20;99.90;;;;;;5023247;27;20043;-80
2022/09/23 08:58:06;;;;;;;0.40;0.40;;;15.50;99.90;;;;;;5003449;28;20055;-80
2022/09/23 09:01:01;;;;;;;0.40;0.40;;;15.50;99.90;;;;;;5009129;27;20984;-81
2022/09/23 09:03:41;;;;;;;0.40;0.40;;;15.70;99.90;;;;;;5024225;27;20053;-79
2022/09/23 09:06:16;;;;;;;0.40;0.40;;;15.70;99.90;;;;;;5004631;27;20412;-80
2022/09/23 09:08:48;;;;;;;0.40;0.40;;;15.80;99.90;;;;;;5013471;27;20423;-79
2022/09/23 09:11:16;;;;;;;0.50;0.50;;;15.90;99.90;;;;;;5004296;28;20043;-80
2022/09/23 09:13:58;;;;;;;0.40;0.40;;;16.00;99.90;;;;;;5029065;27;20051;-80
2022/09/23 09:16:57;;;;;;;0.40;0.40;;;15.90;99.90;;;;;;5030453;27;20082;-80
2022/09/23 09:19:56;;;;;;;0.40;0.40;;;16.00;99.90;;;;;;4982918;27;20063;-79
2022/09/23 09:22:36;;;;;;;0.43;0.43;;;16.00;99.90;;;;;;4979683;27;20063;-80
2022/09/23 09:25:13;;;;;;;0.40;0.40;;;16.00;99.90;;;;;;5004183;27;20055;-81
2022/09/23 09:27:41;;;;;;;0.40;0.40;;;16.00;99.90;;;;;;5026421;27;20484;-80
2022/09/23 09:30:15;;;;;;;0.40;0.40;;;16.00;99.90;;;;;;5009076;27;20052;-79
2022/09/23 09:32:50;;;;;;;0.40;0.40;;;16.00;99.90;;;;;;5025824;27;20455;-79
2022/09/23 09:35:39;;;;;;;0.40;0.40;;;16.00;99.90;;;;;;5029968;27;20063;-80
2022/09/23 09:38:05;;;;;;;0.40;0.40;;;15.90;99.90;;;;;;5000974;27;20055;-79
2022/09/23 09:40:33;;;;;;;0.40;0.40;;;16.00;99.90;;;;;;5011013;27;20534;-79
2022/09/23 09:43:04;;;;;;;0.40;0.40;;;16.10;99.90;;;;;;4987558;28;20047;-79
2022/09/23 09:45:39;;;;;;;0.40;0.40;;;16.00;99.90;;;;;;5000651;28;20044;-80
2022/09/23 09:48:09;;;;;;;0.40;0.40;;;16.00;99.90;;;;;;5004304;28;20081;-80
2022/09/23 09:50:48;;;;;;;0.40;0.40;;;16.20;99.90;;;;;;5000314;28;20856;-80
2022/09/23 09:53:14;;;;;;;0.40;0.40;;;16.30;99.90;;;;;;5001135;28;20670;-79
2022/09/23 09:55:40;;;;;;;0.43;0.43;;;16.30;99.90;;;;;;5000249;28;20077;-80
2022/09/23 09:58:12;;;;;;;0.40;0.40;;;16.40;99.90;;;;;;5010506;27;20489;-79
2022/09/23 10:00:46;;;;;;;0.40;0.40;;;16.70;99.90;;;;;;5010781;28;20852;-81
2022/09/23 10:03:12;;;;;;;0.40;0.40;;;16.90;99.90;;;;;;5008049;28;20040;-79
2022/09/23 10:05:44;;;;;;;0.47;0.47;;;17.00;99.90;;;;;;5003636;27;20597;-79
2022/09/23 10:08:31;;;;;;;0.40;0.40;;;17.10;99.90;;;;;;5000674;28;20047;-80
2022/09/23 10:11:03;;;;;;;0.40;0.40;;;17.30;99.90;;;;;;5009653;28;20457;-79
2022/09/23 10:13:30;;;;;;;0.40;0.40;;;17.30;99.90;;;;;;5001960;28;20546;-79
2022/09/23 10:15:57;;;;;;;0.40;0.40;;;17.30;99.90;;;;;;5005092;28;20036;-80
2022/09/23 10:18:31;;;;;;;0.40;0.40;;;17.30;99.90;;;;;;5006406;28;20134;-79
2022/09/23 10:21:06;;;;;;;0.38;0.38;;;17.40;99.90;;;;;;5006907;27;20116;-80
2022/09/23 10:23:32;;;;;;;0.40;0.40;;;17.30;99.90;;;;;;5004157;28;20908;-79
2022/09/23 10:26:04;;;;;;;0.40;0.40;;;17.40;99.90;;;;;;5007271;28;20036;-79
2022/09/23 10:28:36;;;;;;;0.40;0.40;;;17.30;99.90;;;;;;5000202;28;20071;-80
2022/09/23 10:31:08;;;;;;;0.40;0.40;;;17.30;99.90;;;;;;5002413;28;20441;-79
2022/09/23 10:33:40;;;;;;;0.40;0.40;;;17.20;99.90;;;;;;5005881;28;20044;-80
2022/09/23 10:36:10;;;;;;;0.35;0.35;;;17.10;99.90;;;;;;5010246;28;20101;-79
2022/09/23 10:38:36;;;;;;;0.40;0.40;;;17.20;99.90;;;;;;4988138;28;20047;-79
2022/09/23 10:47:33;;;;;;;0.40;0.40;;;17.20;99.90;;;;;;5011473;28;20543;-79
2022/09/23 10:50:07;;;;;;;0.40;0.40;;;17.20;99.90;;;;;;5005427;28;20128;-79
2022/09/23 10:53:18;;;;;;;0.40;0.40;;;17.30;99.90;;;;;;5002114;28;20052;-80
2022/09/23 10:56:06;;;;;;;0.40;0.40;;;17.40;99.90;;;;;;4972088;28;20063;-79
2022/09/23 10:58:42;;;;;;;0.40;0.40;;;17.50;99.90;;;;;;5000437;28;21085;-79
2022/09/23 11:01:35;;;;;;;0.40;0.40;;;17.60;99.90;;;;;;4998096;28;20213;-80
2022/09/23 11:04:34;;;;;;;0.40;0.40;;;17.60;99.90;;;;;;4999570;28;20565;-79
2022/09/23 11:07:22;;;;;;;0.40;0.40;;;17.70;99.90;;;;;;5006473;28;20306;-79
2022/09/23 11:09:48;;;;;;;0.40;0.40;;;17.90;99.90;;;;;;5000694;28;20051;-79
2022/09/23 11:12:40;;;;;;;0.40;0.40;;;18.00;99.90;;;;;;5012064;28;20048;-79
2022/09/23 11:15:53;;;;;;;0.40;0.40;;;18.00;99.90;;;;;;5028905;27;20086;-80
2022/09/23 11:18:40;;;;;;;0.40;0.40;;;18.20;99.90;;;;;;4950108;28;20366;-79
2022/09/23 11:21:25;;;;;;;0.32;0.32;;;18.40;99.90;;;;;;4934251;28;20042;-79
2022/09/23 11:24:06;;;;;;;0.40;0.40;;;18.30;99.90;;;;;;4989203;28;20056;-80
2022/09/23 11:26:47;;;;;;;0.30;0.30;;;18.40;99.90;;;;;;5000327;28;20047;-79
2022/09/23 11:29:26;;;;;;;0.40;0.40;;;18.60;99.90;;;;;;5002093;28;21021;-80
2022/09/23 11:32:02;;;;;;;0.40;0.40;;;18.40;99.90;;;;;;4996715;28;20059;-79
2022/09/23 11:34:54;;;;;;;0.30;0.30;;;18.50;99.90;;;;;;5005403;28;20401;-79
2022/09/23 11:37:27;;;;;;;0.40;0.40;;;18.60;99.90;;;;;;4971299;28;20146;-80
2022/09/23 11:40:15;;;;;;;0.40;0.40;;;18.70;99.90;;;;;;5004896;28;20867;-80
2022/09/23 11:43:03;;;;;;;0.40;0.40;;;18.70;99.90;;;;;;4982990;28;20086;-80
2022/09/23 11:45:55;;;;;;;0.32;0.32;;;18.60;99.90;;;;;;4994524;28;20044;-80
2022/09/23 11:48:49;;;;;;;0.40;0.40;;;18.60;99.90;;;;;;5006513;28;20110;-80
2022/09/23 11:51:40;;;;;;;0.40;0.40;;;18.60;99.90;;;;;;5002274;28;20552;-77
2022/09/23 11:54:20;;;;;;;0.40;0.40;;;18.60;99.90;;;;;;4999048;28;20066;-79
2022/09/23 11:57:00;;;;;;;0.40;0.40;;;18.70;99.90;;;;;;5004121;28;20159;-80
2022/09/23 11:59:48;;;;;;;0.30;0.30;;;18.70;99.90;;;;;;5000824;28;20460;-79
2022/09/23 12:02:25;;;;;;;0.30;0.30;;;18.70;99.90;;;;;;5011833;28;20643;-80
2022/09/23 12:05:08;;;;;;;0.40;0.40;;;18.60;99.90;;;;;;5009101;28;20051;-81
2022/09/23 12:08:06;;;;;;;0.40;0.40;;;18.50;99.90;;;;;;5005349;28;20418;-79
2022/09/23 12:10:47;;;;;;;0.40;0.40;;;18.50;99.90;;;;;;4999824;28;20068;-80
2022/09/23 12:13:31;;;;;;;0.40;0.40;;;18.60;99.90;;;;;;5008976;28;20051;-80
2022/09/23 12:16:22;;;;;;;0.40;0.40;;;18.50;99.90;;;;;;5006528;28;20054;-80
2022/09/23 12:19:28;;;;;;;0.40;0.40;;;18.40;99.90;;;;;;5004862;28;20899;-79
2022/09/23 12:22:23;;;;;;;0.40;0.40;;;18.40;99.90;;;;;;5013930;28;20575;-80
2022/09/23 12:24:58;;;;;;;;;;;18.50;99.90;;;;;;5003247;28;20471;-79
2022/09/23 12:27:44;;;;;;;0.40;0.40;;;18.40;99.90;;;;;;5000037;28;20544;-80
2022/09/23 12:30:28;;;;;;;0.40;0.40;;;18.50;99.90;;;;;;5008384;28;20052;-80
2022/09/23 12:33:28;;;;;;;0.40;0.40;;;18.50;99.90;;;;;;5004828;28;20472;-79
2022/09/23 12:36:09;;;;;;;0.40;0.40;;;18.40;99.90;;;;;;4990083;27;20056;-81
2022/09/23 12:38:46;;;;;;;0.40;0.40;;;18.30;99.90;;;;;;5002588;28;20047;-80
2022/09/23 12:41:35;;;;;;;0.40;0.40;;;18.40;99.90;;;;;;4999884;28;20036;-80
2022/09/23 12:44:09;;;;;;;0.40;0.40;;;18.30;99.90;;;;;;5021570;27;20815;-80
2022/09/23 12:46:35;;;;;;;0.40;0.40;;;18.30;99.90;;;;;;5003496;28;20814;-80
2022/09/23 12:49:04;;;;;;;0.40;0.40;;;18.20;99.90;;;;;;4999970;27;20046;-80
2022/09/23 12:51:33;;;;;;;0.40;0.40;;;18.20;99.90;;;;;;5010257;27;20459;-80
2022/09/23 12:54:23;;;;;;;0.40;0.40;;;18.20;99.90;;;;;;5021858;27;20043;-79
2022/09/23 12:56:52;;;;;;;0.40;0.40;;;18.10;99.90;;;;;;5000487;27;20551;-79
2022/09/23 12:59:27;;;;;;;0.40;0.40;;;18.10;99.90;;;;;;5000539;27;20044;-79
2022/09/23 13:01:54;;;;;;;0.40;0.40;;;18.10;99.90;;;;;;5026150;27;20135;-79
2022/09/23 13:07:29;;;;;;;0.40;0.40;;;18.00;99.90;;;;;;5002102;27;20740;-80
2022/09/23 13:10:15;;;;;;;0.40;0.40;;;18.00;99.90;;;;;;5007178;27;20081;-80
2022/09/23 13:12:43;;;;;;;0.40;0.40;;;18.00;99.90;;;;;;5022287;27;20999;-80
2022/09/23 13:15:27;;;;;;;0.40;0.40;;;18.00;99.90;;;;;;5004210;27;20507;-80
2022/09/23 13:18:19;;;;;;;0.30;0.30;;;18.00;99.90;;;;;;5025724;27;20085;-80
2022/09/23 13:20:47;;;;;;;0.40;0.40;;;18.00;99.90;;;;;;5017849;27;20061;-80
2022/09/23 13:23:22;;;;;;;0.40;0.40;;;18.00;99.90;;;;;;4993715;27;20058;-80
2022/09/23 13:25:50;;;;;;;0.40;0.40;;;18.00;99.90;;;;;;5022876;27;20099;-80
2022/09/23 13:28:54;;;;;;;0.40;0.40;;;18.00;99.90;;;;;;4985926;28;20591;-79
2022/09/23 13:31:21;;;;;;;0.40;0.40;;;18.00;99.90;;;;;;5012936;27;20052;-80
2022/09/23 13:33:53;;;;;;;0.40;0.40;;;18.00;99.90;;;;;;5008310;27;20777;-80
2022/09/23 13:36:20;;;;;;;0.40;0.40;;;18.00;99.90;;;;;;5013583;27;21016;-80
2022/09/23 13:38:46;;;;;;;0.40;0.40;;;17.90;99.90;;;;;;5005388;27;20055;-79
2022/09/23 13:41:22;;;;;;;0.40;0.40;;;17.90;99.90;;;;;;5008944;27;20570;-81